This is the latest recevied weather packets stored in our database for station/object DL3CSM-13. If no packets are shown the sender has not sent any weather packets the latest 10 day(s).
| Time | Temp. | Humidity | Pressure | Rain* | Wind** | Luminosity | Snow |
|---|---|---|---|---|---|---|---|
| 1777993211 | 20.56° C | 49% | 1006.7 hPa | 0 mm | - | - | - |
| 1777992311 | 21.67° C | 39% | 1006.3 hPa | 0 mm | - | - | - |
| 1777990511 | 22.78° C | 40% | 1006 hPa | 0 mm | - | - | - |
| 1777988711 | 23.33° C | 35% | 1006.1 hPa | 0 mm | - | - | - |
| 1777987811 | 23.33° C | 36% | 1006.2 hPa | 0 mm | - | - | - |
| 1777986911 | 24.44° C | 35% | 1006.3 hPa | 0 mm | - | - | - |
| 1777985111 | 25° C | 34% | 1006.4 hPa | 0 mm | - | - | - |
| 1777983311 | 25.56° C | 33% | 1006.5 hPa | 0 mm | - | - | - |
| 1777982411 | 26.11° C | 34% | 1006.7 hPa | 0 mm | - | - | - |
| 1777981511 | 25.56° C | 32% | 1006.6 hPa | 0 mm | - | - | - |
| 1777980611 | 25° C | 39% | 1006.8 hPa | 0 mm | - | - | - |
| 1777979711 | 25° C | 39% | 1007 hPa | 0 mm | - | - | - |
| 1777977911 | 24.44° C | 41% | 1007.3 hPa | 0 mm | - | - | - |
| 1777977011 | 23.89° C | 41% | 1007.6 hPa | 0 mm | - | - | - |
| 1777976111 | 23.33° C | 43% | 1007.8 hPa | 0 mm | - | - | - |
| 1777975211 | 23.33° C | 42% | 1008 hPa | 0 mm | - | - | - |
| 1777974311 | 22.78° C | 44% | 1008.1 hPa | 0 mm | - | - | - |
| 1777973411 | 22.78° C | 46% | 1008.4 hPa | 0 mm | - | - | - |
| 1777972511 | 22.22° C | 47% | 1008.5 hPa | 0 mm | - | - | - |
| 1777971611 | 21.11° C | 51% | 1008.7 hPa | 0 mm | - | - | - |
| 1777970711 | 20° C | 54% | 1008.9 hPa | 0 mm | - | - | - |
| 1777969811 | 19.44° C | 55% | 1009.1 hPa | 0 mm | - | - | - |
| 1777968911 | 18.33° C | 61% | 1009.2 hPa | 0 mm | - | - | - |
| 1777967111 | 16.67° C | 66% | 1009.5 hPa | 0 mm | - | - | - |
| 1777966211 | 15.56° C | 69% | 1009.4 hPa | 0 mm | - | - | - |
* Rain latest hour (hover to see other rain measurements)
** Current wind speed in m/s (hover to see current wind gust speed)